createdAt,value
2023-05-20T00:01:34.519Z,24.39
2023-05-20T00:04:01.435Z,24.39
2023-05-20T00:06:28.109Z,24.38
2023-05-20T00:08:55.714Z,24.38
2023-05-20T00:11:22.493Z,24.38
2023-05-20T00:13:48.991Z,24.38
2023-05-20T00:16:15.517Z,24.38
2023-05-20T00:18:42.009Z,24.39
2023-05-20T00:21:08.500Z,24.38
2023-05-20T00:23:34.967Z,24.38
2023-05-20T00:26:01.933Z,24.39
2023-05-20T00:28:28.487Z,24.37
2023-05-20T00:30:55.052Z,24.38
2023-05-20T00:33:21.655Z,24.38
2023-05-20T00:35:48.234Z,24.39
2023-05-20T00:38:14.775Z,24.39
2023-05-20T00:40:41.310Z,24.40
2023-05-20T00:43:09.994Z,24.40
2023-05-20T00:45:37.930Z,24.41
2023-05-20T00:48:06.063Z,24.41
2023-05-20T00:50:32.712Z,24.42
2023-05-20T00:52:59.421Z,24.40
2023-05-20T00:55:26.300Z,24.41
2023-05-20T00:57:53.916Z,24.41
2023-05-20T01:00:20.530Z,24.40
2023-05-20T01:02:47.201Z,24.41
2023-05-20T01:05:13.870Z,24.40
2023-05-20T01:07:40.990Z,24.40
2023-05-20T01:10:08.298Z,24.40
2023-05-20T01:12:37.404Z,24.40
2023-05-20T01:15:09.648Z,24.41
2023-05-20T01:17:40.064Z,24.41
2023-05-20T01:20:10.258Z,24.40
2023-05-20T01:22:38.483Z,24.40
2023-05-20T01:25:05.606Z,24.40
2023-05-20T01:27:32.228Z,24.39
2023-05-20T01:29:59.586Z,24.39
2023-05-20T01:32:32.652Z,24.41
2023-05-20T01:35:00.215Z,24.39
2023-05-20T01:37:28.209Z,24.39
2023-05-20T01:39:55.080Z,24.38
2023-05-20T01:42:23.001Z,24.39
2023-05-20T01:44:49.665Z,24.39
2023-05-20T01:47:16.225Z,24.39
2023-05-20T01:49:42.770Z,24.39
2023-05-20T01:52:09.333Z,24.38
2023-05-20T01:54:36.310Z,24.39
2023-05-20T01:57:03.044Z,24.38
2023-05-20T01:59:29.933Z,24.39
2023-05-20T02:01:56.538Z,24.38
2023-05-20T02:04:23.136Z,24.38
2023-05-20T02:06:49.824Z,24.38
2023-05-20T02:09:18.432Z,24.38
2023-05-20T02:11:44.973Z,24.38
2023-05-20T02:14:11.638Z,24.36
2023-05-20T02:16:38.296Z,24.37
2023-05-20T02:19:04.903Z,24.36
2023-05-20T02:21:31.618Z,24.35
2023-05-20T02:23:58.191Z,24.37
2023-05-20T02:26:26.396Z,24.36
2023-05-20T02:28:52.963Z,24.35
2023-05-20T02:31:21.588Z,24.35
2023-05-20T02:33:48.195Z,24.34
2023-05-20T02:36:15.190Z,24.35
2023-05-20T02:38:41.732Z,24.34
2023-05-20T02:41:10.760Z,24.34
2023-05-20T02:43:37.497Z,24.35
2023-05-20T02:46:04.073Z,24.34
2023-05-20T02:48:30.703Z,24.34
2023-05-20T02:50:57.329Z,24.34
2023-05-20T02:53:23.895Z,24.34
2023-05-20T02:55:50.551Z,24.34
2023-05-20T02:58:17.574Z,24.34
2023-05-20T03:00:44.683Z,24.33
2023-05-20T03:03:11.417Z,24.33
2023-05-20T03:05:38.206Z,24.33
2023-05-20T03:08:10.283Z,24.33
2023-05-20T03:10:37.716Z,24.32
2023-05-20T03:13:09.412Z,24.34
2023-05-20T03:15:41.282Z,24.32
2023-05-20T03:18:08.637Z,24.32
2023-05-20T03:20:40.129Z,24.32
2023-05-20T03:23:07.791Z,24.31
2023-05-20T03:25:37.632Z,24.30
2023-05-20T03:28:04.638Z,24.31
2023-05-20T03:30:31.528Z,24.31
2023-05-20T03:32:59.199Z,24.31
2023-05-20T03:35:26.596Z,24.31
2023-05-20T03:37:53.402Z,24.32
2023-05-20T03:40:22.379Z,24.31
2023-05-20T03:42:50.897Z,24.31
2023-05-20T03:45:19.042Z,24.30
2023-05-20T03:47:56.142Z,24.30
2023-05-20T03:50:22.756Z,24.29
2023-05-20T03:52:49.357Z,24.29
2023-05-20T03:55:20.478Z,24.29
2023-05-20T03:57:47.427Z,24.28
2023-05-20T04:00:14.842Z,24.28
2023-05-20T04:02:44.480Z,24.28
2023-05-20T04:05:14.191Z,24.28
2023-05-20T04:07:41.729Z,24.27
2023-05-20T04:10:09.488Z,24.27
2023-05-20T04:12:38.246Z,24.28
2023-05-20T04:15:06.739Z,24.27
2023-05-20T04:17:43.677Z,24.26
2023-05-20T04:20:11.368Z,24.26
2023-05-20T04:22:39.690Z,24.25
2023-05-20T04:25:06.966Z,24.27
2023-05-20T04:27:33.948Z,24.27
2023-05-20T04:30:02.300Z,24.26
2023-05-20T04:32:34.499Z,24.25
2023-05-20T04:35:02.230Z,24.25
2023-05-20T04:37:32.122Z,24.25
2023-05-20T04:39:58.735Z,24.25
2023-05-20T04:42:25.810Z,24.26
2023-05-20T04:44:52.811Z,24.26
2023-05-20T04:47:19.374Z,24.26
2023-05-20T04:49:45.956Z,24.26
2023-05-20T04:52:12.535Z,24.25
2023-05-20T04:54:40.264Z,24.25
2023-05-20T04:57:07.177Z,24.25
2023-05-20T04:59:33.707Z,24.26
2023-05-20T05:02:00.505Z,24.26
2023-05-20T05:04:27.185Z,24.26
2023-05-20T05:06:54.055Z,24.26
2023-05-20T05:09:21.004Z,24.26
2023-05-20T05:11:47.708Z,24.26
2023-05-20T05:14:14.418Z,24.26
2023-05-20T05:16:41.077Z,24.26
2023-05-20T05:19:09.240Z,24.26
2023-05-20T05:21:38.517Z,24.26
2023-05-20T05:24:05.263Z,24.26
2023-05-20T05:26:31.856Z,24.25
2023-05-20T05:28:58.400Z,24.27
2023-05-20T05:31:25.007Z,24.26
2023-05-20T05:33:51.609Z,24.25
2023-05-20T05:36:18.253Z,24.26
2023-05-20T05:38:45.067Z,24.26
2023-05-20T05:41:11.956Z,24.26
2023-05-20T05:43:38.578Z,24.27
2023-05-20T05:46:06.689Z,24.27
2023-05-20T05:48:33.566Z,24.26
2023-05-20T05:51:00.483Z,24.27
2023-05-20T05:53:27.330Z,24.27
2023-05-20T05:55:54.120Z,24.27
2023-05-20T05:58:20.925Z,24.28
2023-05-20T06:00:47.468Z,24.28
2023-05-20T06:03:14.164Z,24.29
2023-05-20T06:05:40.901Z,24.28
2023-05-20T06:08:07.530Z,24.29
2023-05-20T06:10:35.776Z,24.30
2023-05-20T06:13:02.331Z,24.30
2023-05-20T06:15:30.777Z,24.30
2023-05-20T06:17:57.417Z,24.30
2023-05-20T06:20:25.434Z,24.31
2023-05-20T06:22:52.148Z,24.31
2023-05-20T06:25:19.421Z,24.31
2023-05-20T06:27:46.076Z,24.31
2023-05-20T06:30:16.914Z,24.31
2023-05-20T06:32:43.827Z,24.31
2023-05-20T06:35:11.361Z,24.31
2023-05-20T06:37:37.958Z,24.32
2023-05-20T06:40:05.549Z,24.31
2023-05-20T06:42:32.074Z,24.32
2023-05-20T06:45:06.309Z,24.31
2023-05-20T06:47:47.960Z,24.32
2023-05-20T06:50:14.800Z,24.31
2023-05-20T06:52:41.345Z,24.31
2023-05-20T06:55:08.305Z,24.32
2023-05-20T06:57:35.420Z,24.32
2023-05-20T07:00:03.732Z,24.34
2023-05-20T07:02:33.274Z,24.33
2023-05-20T07:04:59.843Z,24.34
2023-05-20T07:07:26.397Z,24.34
2023-05-20T07:09:53.104Z,24.33
2023-05-20T07:12:19.929Z,24.34
2023-05-20T07:14:46.445Z,24.34
2023-05-20T07:17:12.990Z,24.34
2023-05-20T07:19:39.931Z,24.34
2023-05-20T07:22:06.595Z,24.35
2023-05-20T07:24:48.073Z,24.34
2023-05-20T07:27:14.706Z,24.35
2023-05-20T07:29:41.269Z,24.36
2023-05-20T07:32:09.656Z,24.37
2023-05-20T07:34:37.836Z,24.37
2023-05-20T07:37:04.520Z,24.37
2023-05-20T07:39:31.786Z,24.37
2023-05-20T07:41:59.053Z,24.37
2023-05-20T07:44:26.658Z,24.37
2023-05-20T07:46:55.759Z,24.39
2023-05-20T07:49:22.615Z,24.38
2023-05-20T07:51:49.378Z,24.39
2023-05-20T07:54:16.412Z,24.39
2023-05-20T07:56:46.316Z,24.39
2023-05-20T07:59:13.778Z,24.40
2023-05-20T08:01:44.198Z,24.40
2023-05-20T08:04:13.279Z,24.41
2023-05-20T08:06:41.350Z,24.42
2023-05-20T08:09:11.691Z,24.42
2023-05-20T08:11:45.801Z,24.42
2023-05-20T08:14:14.156Z,24.42
2023-05-20T08:16:43.818Z,24.42
2023-05-20T08:19:10.792Z,24.43
2023-05-20T08:21:37.519Z,24.44
2023-05-20T08:24:04.756Z,24.44
2023-05-20T08:26:31.998Z,24.44
2023-05-20T08:28:58.651Z,24.45
2023-05-20T08:31:25.196Z,24.45
2023-05-20T08:33:52.014Z,24.45
2023-05-20T08:36:19.446Z,24.45
2023-05-20T08:38:46.174Z,24.46
2023-05-20T08:41:12.817Z,24.46
2023-05-20T08:43:42.632Z,24.47
2023-05-20T08:46:09.822Z,24.46
2023-05-20T08:48:37.030Z,24.47
2023-05-20T08:51:04.267Z,24.47
2023-05-20T08:53:30.985Z,24.47
2023-05-20T08:56:03.807Z,24.48
2023-05-20T08:58:33.637Z,24.47
2023-05-20T09:01:00.256Z,24.48
2023-05-20T09:03:27.018Z,24.49
2023-05-20T09:05:54.269Z,24.48
2023-05-20T09:08:28.028Z,24.50
2023-05-20T09:10:54.699Z,24.49
2023-05-20T09:13:23.713Z,24.49
2023-05-20T09:15:50.703Z,24.49
2023-05-20T09:18:17.363Z,24.49
2023-05-20T09:20:47.356Z,24.50
2023-05-20T09:23:13.966Z,24.50
2023-05-20T09:25:40.644Z,24.49
2023-05-20T09:28:08.808Z,24.51
2023-05-20T09:30:35.692Z,24.51
2023-05-20T09:33:05.010Z,24.51
2023-05-20T09:35:35.755Z,24.51
2023-05-20T09:38:04.902Z,24.52
2023-05-20T09:40:31.659Z,24.51
2023-05-20T09:43:07.917Z,24.52
2023-05-20T09:45:35.557Z,24.52
2023-05-20T09:48:03.352Z,24.52
2023-05-20T09:50:31.669Z,24.52
2023-05-20T09:53:03.046Z,24.54
2023-05-20T09:55:30.887Z,24.54
2023-05-20T09:58:01.851Z,24.53
2023-05-20T10:00:28.771Z,24.53
2023-05-20T10:02:55.767Z,24.53
2023-05-20T10:05:30.154Z,24.54
2023-05-20T10:08:29.392Z,24.55
2023-05-20T10:11:11.184Z,24.53
2023-05-20T10:14:02.760Z,24.52
2023-05-20T10:16:58.013Z,24.52
2023-05-20T10:19:27.784Z,24.51
2023-05-20T10:22:00.342Z,24.51
2023-05-20T10:24:38.253Z,24.53
2023-05-20T10:27:09.834Z,24.52
2023-05-20T10:29:50.683Z,24.53
2023-05-20T10:32:34.342Z,24.54
2023-05-20T10:35:05.017Z,24.53
2023-05-20T10:37:44.183Z,24.55
2023-05-20T10:40:13.527Z,24.54
2023-05-20T10:42:41.322Z,24.53
2023-05-20T10:45:09.049Z,24.55
2023-05-20T10:47:36.877Z,24.56
2023-05-20T10:50:07.832Z,24.55
2023-05-20T10:52:38.360Z,24.57
2023-05-20T10:55:05.576Z,24.56
2023-05-20T10:57:32.406Z,24.56
2023-05-20T11:00:00.904Z,24.57
2023-05-20T11:02:28.762Z,24.58
2023-05-20T11:04:59.084Z,24.59
2023-05-20T11:07:30.756Z,24.59
2023-05-20T11:10:00.883Z,24.58
2023-05-20T11:12:28.289Z,24.59
2023-05-20T11:14:55.269Z,24.59
2023-05-20T11:17:21.949Z,24.60
2023-05-20T11:19:49.033Z,24.61
2023-05-20T11:22:15.682Z,24.61
2023-05-20T11:24:42.421Z,24.61
2023-05-20T11:27:09.459Z,24.62
2023-05-20T11:29:36.412Z,24.62
2023-05-20T11:32:03.381Z,24.62
2023-05-20T11:34:37.304Z,24.64
2023-05-20T11:37:08.728Z,24.63
2023-05-20T11:39:35.445Z,24.62
2023-05-20T11:42:03.467Z,24.63
2023-05-20T11:44:30.498Z,24.64
2023-05-20T11:47:01.882Z,24.65
2023-05-20T11:49:29.256Z,24.64
2023-05-20T11:51:57.079Z,24.66
2023-05-20T11:54:24.411Z,24.65
2023-05-20T11:56:51.700Z,24.66
2023-05-20T11:59:18.505Z,24.66
2023-05-20T12:01:45.787Z,24.67
2023-05-20T12:04:14.860Z,24.66
2023-05-20T12:06:43.060Z,24.67
2023-05-20T12:09:11.121Z,24.67
2023-05-20T12:11:40.770Z,24.68
2023-05-20T12:14:08.587Z,24.68
2023-05-20T12:16:36.577Z,24.68
2023-05-20T12:19:03.869Z,24.68
2023-05-20T12:21:31.472Z,24.70
2023-05-20T12:23:59.912Z,24.71
2023-05-20T12:26:28.446Z,24.68
2023-05-20T12:28:55.370Z,24.69
2023-05-20T12:31:22.344Z,24.71
2023-05-20T12:33:49.051Z,24.71
2023-05-20T12:36:15.720Z,24.73
2023-05-20T12:38:42.541Z,24.74
2023-05-20T12:41:09.277Z,24.73
2023-05-20T12:43:37.493Z,24.74
2023-05-20T12:46:05.100Z,24.74
2023-05-20T12:48:32.029Z,24.74
2023-05-20T12:50:58.765Z,24.75
2023-05-20T12:53:25.564Z,24.75
2023-05-20T12:55:52.455Z,24.76
2023-05-20T12:58:19.181Z,24.76
2023-05-20T13:00:46.098Z,24.76
2023-05-20T13:03:12.817Z,24.78
2023-05-20T13:05:39.450Z,24.77
2023-05-20T13:08:06.330Z,24.78
2023-05-20T13:10:43.962Z,24.78
2023-05-20T13:13:10.506Z,24.77
2023-05-20T13:15:37.102Z,24.79
2023-05-20T13:18:06.282Z,24.79
2023-05-20T13:20:33.000Z,24.80
2023-05-20T13:22:59.647Z,24.80
2023-05-20T13:25:26.410Z,24.80
2023-05-20T13:27:52.975Z,24.80
2023-05-20T13:30:19.511Z,24.81
2023-05-20T13:32:46.338Z,24.81
2023-05-20T13:35:13.182Z,24.81
2023-05-20T13:37:39.811Z,24.82
2023-05-20T13:40:07.236Z,24.82
2023-05-20T13:42:33.813Z,24.82
2023-05-20T13:45:00.465Z,24.83
2023-05-20T13:47:27.021Z,24.83
2023-05-20T13:49:53.570Z,24.82
2023-05-20T13:52:20.141Z,24.82
2023-05-20T13:54:48.672Z,24.83
2023-05-20T13:57:16.094Z,24.82
2023-05-20T13:59:42.741Z,24.81
2023-05-20T14:02:09.328Z,24.81
2023-05-20T14:04:38.203Z,24.80
2023-05-20T14:07:09.876Z,24.80
2023-05-20T14:09:36.881Z,24.78
2023-05-20T14:12:04.295Z,24.78
2023-05-20T14:14:30.902Z,24.79
2023-05-20T14:16:57.572Z,24.78
2023-05-20T14:19:24.102Z,24.79
2023-05-20T14:21:50.694Z,24.80
2023-05-20T14:24:17.257Z,24.80
2023-05-20T14:26:43.818Z,24.80
2023-05-20T14:29:10.486Z,24.80
2023-05-20T14:31:39.257Z,24.80
2023-05-20T14:34:05.981Z,24.80
2023-05-20T14:36:32.632Z,24.80
2023-05-20T14:38:59.187Z,24.81
2023-05-20T14:41:26.013Z,24.82
2023-05-20T14:43:52.538Z,24.82
2023-05-20T14:46:19.104Z,24.85
2023-05-20T14:54:30.711Z,24.40
2023-05-20T14:56:57.244Z,24.33
2023-05-20T14:59:23.820Z,24.38
2023-05-20T15:01:50.434Z,24.47
2023-05-20T15:04:16.992Z,24.56
2023-05-20T15:06:43.849Z,24.63
2023-05-20T15:09:10.392Z,24.69
2023-05-20T15:11:36.977Z,24.77
2023-05-20T15:14:03.533Z,24.82
2023-05-20T15:16:30.117Z,24.87
2023-05-20T15:18:56.738Z,24.92
2023-05-20T15:21:23.450Z,24.95
2023-05-20T15:23:49.965Z,24.99
2023-05-20T15:26:16.594Z,25.02
2023-05-20T15:28:43.137Z,25.07
2023-05-20T15:31:09.716Z,25.09
2023-05-20T15:33:36.423Z,25.11
2023-05-20T15:36:03.528Z,25.13
2023-05-20T15:38:30.046Z,25.15
2023-05-20T15:40:56.548Z,25.16
2023-05-20T15:43:23.083Z,25.19
2023-05-20T15:45:49.695Z,25.21
2023-05-20T15:48:16.480Z,25.24
2023-05-20T15:50:43.054Z,25.24
2023-05-20T15:53:09.646Z,25.26
2023-05-20T15:55:36.238Z,25.28
2023-05-20T15:58:02.747Z,25.29
2023-05-20T16:00:29.302Z,25.30
2023-05-20T16:02:56.693Z,25.31
2023-05-20T16:05:26.433Z,25.32
2023-05-20T16:07:57.001Z,25.33
2023-05-20T16:10:25.912Z,25.34
2023-05-20T16:12:52.826Z,25.33
2023-05-20T16:15:19.502Z,25.37
2023-05-20T16:17:46.064Z,25.39
2023-05-20T16:20:12.643Z,25.40
2023-05-20T16:22:39.896Z,25.41
2023-05-20T16:25:06.625Z,25.43
2023-05-20T16:27:33.450Z,25.44
2023-05-20T16:30:00.241Z,25.45
2023-05-20T16:32:27.128Z,25.47
2023-05-20T16:34:54.765Z,25.49
2023-05-20T16:37:21.438Z,25.50
2023-05-20T16:39:47.949Z,25.51
2023-05-20T16:42:14.541Z,25.51
2023-05-20T16:44:41.339Z,25.51
2023-05-20T16:47:09.005Z,25.52
2023-05-20T16:49:36.043Z,25.53
2023-05-20T16:52:03.935Z,25.54
2023-05-20T16:54:30.876Z,25.54
2023-05-20T16:56:57.393Z,25.55
2023-05-20T16:59:25.768Z,25.54
2023-05-20T17:01:52.307Z,25.55
2023-05-20T17:04:18.890Z,25.56
2023-05-20T17:06:45.431Z,25.58
2023-05-20T17:09:12.213Z,25.59
2023-05-20T17:11:38.785Z,25.62
2023-05-20T17:14:05.348Z,25.63
2023-05-20T17:16:32.071Z,25.67
2023-05-20T17:21:25.413Z,25.80
2023-05-20T17:23:51.983Z,25.92
2023-05-20T17:26:18.493Z,26.15
2023-05-20T17:28:45.050Z,26.22
2023-05-20T17:31:11.913Z,26.32
2023-05-20T17:33:38.958Z,26.61
2023-05-20T17:36:06.119Z,26.89
2023-05-20T17:38:32.658Z,27.18
2023-05-20T17:40:59.341Z,27.26
2023-05-20T17:43:26.108Z,27.21
2023-05-20T17:45:52.672Z,27.09
2023-05-20T17:48:19.517Z,27.03
2023-05-20T17:50:46.120Z,26.91
2023-05-20T17:53:12.713Z,26.82
2023-05-20T17:55:39.726Z,26.71
2023-05-20T17:58:07.227Z,26.61
2023-05-20T18:00:42.067Z,26.53
2023-05-20T18:03:09.809Z,26.45
2023-05-20T18:05:36.556Z,26.40
2023-05-20T18:08:03.450Z,26.35
2023-05-20T18:10:30.043Z,26.29
2023-05-20T18:12:56.583Z,26.25
2023-05-20T18:15:23.133Z,26.21
2023-05-20T18:18:14.625Z,26.17
2023-05-20T18:20:41.284Z,26.12
2023-05-20T18:23:07.802Z,26.09
2023-05-20T18:25:34.325Z,26.07
2023-05-20T18:28:01.597Z,26.05
2023-05-20T18:30:28.246Z,26.02
2023-05-20T18:32:55.928Z,26.02
2023-05-20T18:35:22.679Z,26.00
2023-05-20T18:37:49.372Z,25.98
2023-05-20T18:40:16.126Z,25.97
2023-05-20T18:42:42.690Z,25.95
2023-05-20T18:45:09.643Z,25.94
2023-05-20T18:47:36.548Z,25.92
2023-05-20T18:50:03.575Z,25.91
2023-05-20T18:52:30.163Z,25.89
2023-05-20T18:54:56.770Z,25.87
2023-05-20T18:57:23.341Z,25.85
2023-05-20T18:59:49.857Z,25.84
2023-05-20T19:02:17.448Z,25.82
2023-05-20T19:04:44.076Z,25.81
2023-05-20T19:07:11.593Z,25.78
2023-05-20T19:09:38.184Z,25.77
2023-05-20T19:12:05.888Z,25.76
2023-05-20T19:14:32.455Z,25.74
2023-05-20T19:17:00.956Z,25.72
2023-05-20T19:19:27.779Z,25.70
2023-05-20T19:21:54.617Z,25.67
2023-05-20T19:24:21.220Z,25.64
2023-05-20T19:26:47.759Z,25.62
2023-05-20T19:29:15.412Z,25.61
2023-05-20T19:31:43.154Z,25.59
2023-05-20T19:34:10.118Z,25.57
2023-05-20T19:36:38.242Z,25.57
2023-05-20T19:39:05.187Z,25.55
2023-05-20T19:41:31.780Z,25.53
2023-05-20T19:43:58.304Z,25.52
2023-05-20T19:46:24.993Z,25.51
2023-05-20T19:48:51.578Z,25.50
2023-05-20T19:51:18.194Z,25.50
2023-05-20T19:53:44.736Z,25.50
2023-05-20T19:56:12.587Z,25.50
2023-05-20T19:58:39.137Z,25.48
2023-05-20T20:01:06.663Z,25.46
2023-05-20T20:03:34.054Z,25.46
2023-05-20T20:06:00.733Z,25.46
2023-05-20T20:08:27.344Z,25.44
2023-05-20T20:10:53.887Z,25.43
2023-05-20T20:13:20.451Z,25.43
2023-05-20T20:15:47.061Z,25.42
2023-05-20T20:18:13.716Z,25.41
2023-05-20T20:20:40.677Z,25.40
2023-05-20T20:23:08.422Z,25.40
2023-05-20T20:25:38.930Z,25.40
2023-05-20T20:28:06.856Z,25.38
2023-05-20T20:30:34.041Z,25.38
2023-05-20T20:33:01.659Z,25.37
2023-05-20T20:35:28.261Z,25.37
2023-05-20T20:37:54.733Z,25.35
2023-05-20T20:40:25.511Z,25.36
2023-05-20T20:42:54.701Z,25.34
2023-05-20T20:45:22.806Z,25.33
2023-05-20T20:47:54.662Z,25.33
2023-05-20T20:50:21.679Z,25.31
2023-05-20T20:52:48.202Z,25.31
2023-05-20T20:55:14.822Z,25.30
2023-05-20T20:57:41.950Z,25.30
2023-05-20T21:00:20.907Z,25.29
2023-05-20T21:02:48.135Z,25.27
2023-05-20T21:05:18.256Z,25.27
2023-05-20T21:07:50.124Z,25.27
2023-05-20T21:10:20.638Z,25.26
2023-05-20T21:12:47.322Z,25.25
2023-05-20T21:15:14.985Z,25.26
2023-05-20T21:17:41.827Z,25.25
2023-05-20T21:20:08.849Z,25.25
2023-05-20T21:22:35.535Z,25.24
2023-05-20T21:25:02.052Z,25.24
2023-05-20T21:27:28.609Z,25.24
2023-05-20T21:29:55.098Z,25.23
2023-05-20T21:32:21.604Z,25.23
2023-05-20T21:34:48.236Z,25.22
2023-05-20T21:37:14.858Z,25.22
2023-05-20T21:39:41.804Z,25.22
2023-05-20T21:42:08.410Z,25.22
2023-05-20T21:44:35.000Z,25.22
2023-05-20T21:47:01.614Z,25.20
2023-05-20T21:49:28.106Z,25.22
2023-05-20T21:51:54.591Z,25.21
2023-05-20T21:54:21.120Z,25.20
2023-05-20T21:56:47.727Z,25.21
2023-05-20T21:59:14.801Z,25.21
2023-05-20T22:01:41.370Z,25.19
2023-05-20T22:04:08.079Z,25.19
2023-05-20T22:06:36.018Z,25.20
2023-05-20T22:09:03.467Z,25.20
2023-05-20T22:11:30.260Z,25.19
2023-05-20T22:13:57.217Z,25.19
2023-05-20T22:16:24.747Z,25.18
2023-05-20T22:18:53.804Z,25.18
2023-05-20T22:21:21.615Z,25.17
2023-05-20T22:23:48.385Z,25.17
2023-05-20T22:26:14.982Z,25.17
2023-05-20T22:28:41.709Z,25.17
2023-05-20T22:31:08.408Z,25.16
2023-05-20T22:33:34.929Z,25.16
2023-05-20T22:36:01.436Z,25.16
2023-05-20T22:38:29.743Z,25.16
2023-05-20T22:40:56.451Z,25.15
2023-05-20T22:43:23.783Z,25.16
2023-05-20T22:45:50.453Z,25.15
2023-05-20T22:48:16.959Z,25.15
2023-05-20T22:50:43.450Z,25.15
2023-05-20T22:53:09.973Z,25.15
2023-05-20T22:55:38.751Z,25.15
2023-05-20T22:58:05.297Z,25.14
2023-05-20T23:00:32.148Z,25.14
2023-05-20T23:02:58.894Z,25.15
2023-05-20T23:05:25.696Z,25.14
2023-05-20T23:07:55.047Z,25.14
2023-05-20T23:10:21.809Z,25.14
2023-05-20T23:12:48.310Z,25.14
2023-05-20T23:15:14.888Z,25.14
2023-05-20T23:17:41.591Z,25.13
2023-05-20T23:20:10.865Z,25.14
2023-05-20T23:22:38.255Z,25.13
2023-05-20T23:25:05.700Z,25.14
2023-05-20T23:27:32.628Z,25.13
2023-05-20T23:29:59.290Z,25.13
2023-05-20T23:32:26.300Z,25.12
2023-05-20T23:34:53.401Z,25.13
2023-05-20T23:37:20.160Z,25.13
2023-05-20T23:39:47.186Z,25.13
2023-05-20T23:42:13.884Z,25.12
2023-05-20T23:44:40.444Z,25.11
2023-05-20T23:47:07.707Z,25.11
2023-05-20T23:49:34.755Z,25.12
2023-05-20T23:52:01.559Z,25.11
2023-05-20T23:54:28.072Z,25.11
2023-05-20T23:56:55.467Z,25.11
2023-05-20T23:59:22.209Z,25.10
